createdAt,value
2023-08-08T00:00:44.428Z,-78
2023-08-08T00:03:12.633Z,-77
2023-08-08T00:05:40.864Z,-78
2023-08-08T00:08:08.999Z,-77
2023-08-08T00:10:38.502Z,-78
2023-08-08T00:13:06.642Z,-78
2023-08-08T00:15:34.877Z,-77
2023-08-08T00:18:03.073Z,-78
2023-08-08T00:20:34.134Z,-78
2023-08-08T00:23:02.317Z,-77
2023-08-08T00:25:30.569Z,-78
2023-08-08T00:28:00.042Z,-77
2023-08-08T00:30:28.140Z,-78
2023-08-08T00:32:56.271Z,-78
2023-08-08T00:35:24.459Z,-78
2023-08-08T00:37:52.581Z,-78
2023-08-08T00:40:20.761Z,-77
2023-08-08T00:42:48.914Z,-78
2023-08-08T00:45:18.494Z,-78
2023-08-08T00:47:46.695Z,-77
2023-08-08T00:50:14.869Z,-78
2023-08-08T00:52:43.226Z,-77
2023-08-08T00:55:11.340Z,-78
2023-08-08T00:57:39.573Z,-78
2023-08-08T01:00:10.764Z,-78
2023-08-08T01:02:40.399Z,-78
2023-08-08T01:05:09.163Z,-78
2023-08-08T01:07:41.577Z,-78
2023-08-08T01:10:13.918Z,-77
2023-08-08T01:12:42.683Z,-78
2023-08-08T01:15:11.597Z,-78
2023-08-08T01:17:41.202Z,-78
2023-08-08T01:20:11.276Z,-78
2023-08-08T01:22:41.644Z,-78
2023-08-08T01:25:11.261Z,-78
2023-08-08T01:27:39.420Z,-78
2023-08-08T01:30:10.198Z,-78
2023-08-08T01:32:38.408Z,-78
2023-08-08T01:35:07.515Z,-77
2023-08-08T01:37:38.669Z,-77
2023-08-08T01:40:07.662Z,-78
2023-08-08T01:42:37.212Z,-78
2023-08-08T01:45:06.277Z,-78
2023-08-08T01:47:34.520Z,-78
2023-08-08T01:50:02.709Z,-78
2023-08-08T01:52:30.818Z,-78
2023-08-08T01:54:58.989Z,-78
2023-08-08T01:57:27.156Z,-78
2023-08-08T01:59:56.705Z,-78
2023-08-08T02:02:24.895Z,-78
2023-08-08T02:04:53.033Z,-82
2023-08-08T02:07:22.221Z,-82
2023-08-08T02:09:51.907Z,-82
2023-08-08T02:12:19.996Z,-81
2023-08-08T02:14:48.111Z,-82
2023-08-08T02:17:17.684Z,-82
2023-08-08T02:19:45.836Z,-82
2023-08-08T02:22:13.953Z,-82
2023-08-08T02:24:42.089Z,-82
2023-08-08T02:27:10.235Z,-81
2023-08-08T02:29:38.414Z,-82
2023-08-08T02:32:07.295Z,-82
2023-08-08T02:34:36.866Z,-82
2023-08-08T02:37:05.409Z,-82
2023-08-08T02:39:33.513Z,-82
2023-08-08T02:42:01.799Z,-81
2023-08-08T02:44:30.426Z,-81
2023-08-08T02:46:58.612Z,-82
2023-08-08T02:49:26.740Z,-81
2023-08-08T02:51:56.254Z,-81
2023-08-08T02:54:24.375Z,-81
2023-08-08T02:56:52.499Z,-82
2023-08-08T02:59:21.932Z,-82
2023-08-08T03:01:50.598Z,-81
2023-08-08T03:04:18.829Z,-82
2023-08-08T03:06:46.985Z,-82
2023-08-08T03:09:16.456Z,-82
2023-08-08T03:11:44.539Z,-81
2023-08-08T03:14:12.603Z,-81
2023-08-08T03:16:40.745Z,-81
2023-08-08T03:19:08.843Z,-81
2023-08-08T03:21:37.025Z,-80
2023-08-08T03:24:05.661Z,-82
2023-08-08T03:26:35.140Z,-83
2023-08-08T03:29:04.319Z,-82
2023-08-08T03:31:32.408Z,-82
2023-08-08T03:34:00.591Z,-81
2023-08-08T03:36:28.816Z,-82
2023-08-08T03:38:58.132Z,-82
2023-08-08T03:41:26.337Z,-82
2023-08-08T03:43:57.394Z,-81
2023-08-08T03:46:25.585Z,-82
2023-08-08T03:48:54.680Z,-82
2023-08-08T03:51:22.971Z,-81
2023-08-08T03:53:51.163Z,-82
2023-08-08T03:56:19.264Z,-82
2023-08-08T03:58:47.515Z,-82
2023-08-08T04:01:17.063Z,-82
2023-08-08T04:03:45.387Z,-82
2023-08-08T04:06:13.605Z,-81
2023-08-08T04:08:41.737Z,-82
2023-08-08T04:11:09.911Z,-81
2023-08-08T04:13:38.079Z,-82
2023-08-08T04:16:06.269Z,-82
2023-08-08T04:18:35.857Z,-78
2023-08-08T04:21:04.098Z,-77
2023-08-08T04:23:32.231Z,-78
2023-08-08T04:26:04.379Z,-78
2023-08-08T04:28:32.828Z,-78
2023-08-08T04:31:00.961Z,-77
2023-08-08T04:33:29.115Z,-78
2023-08-08T04:35:58.622Z,-78
2023-08-08T04:38:26.747Z,-77
2023-08-08T04:40:54.922Z,-78
2023-08-08T04:43:23.036Z,-78
2023-08-08T04:45:51.179Z,-78
2023-08-08T04:48:19.288Z,-77
2023-08-08T04:50:52.404Z,-78
2023-08-08T04:53:21.940Z,-78
2023-08-08T04:55:50.106Z,-78
2023-08-08T04:58:18.224Z,-78
2023-08-08T05:00:47.647Z,-78
2023-08-08T05:03:15.877Z,-77
2023-08-08T05:05:45.939Z,-78
2023-08-08T05:08:14.191Z,-78
2023-08-08T05:10:43.766Z,-78
2023-08-08T05:13:11.974Z,-78
2023-08-08T05:15:40.173Z,-78
2023-08-08T05:18:08.334Z,-78
2023-08-08T05:20:37.081Z,-78
2023-08-08T05:23:05.496Z,-78
2023-08-08T05:25:33.623Z,-78
2023-08-08T05:28:03.947Z,-78
2023-08-08T05:30:32.097Z,-78
2023-08-08T05:33:00.300Z,-78
2023-08-08T05:35:28.704Z,-82
2023-08-08T05:37:56.852Z,-81
2023-08-08T05:40:25.020Z,-81
2023-08-08T05:42:53.188Z,-82
2023-08-08T05:45:22.746Z,-81
2023-08-08T05:47:50.939Z,-81
2023-08-08T05:50:19.361Z,-82
2023-08-08T05:52:47.521Z,-82
2023-08-08T05:55:15.873Z,-81
2023-08-08T05:57:44.124Z,-81
2023-08-08T06:00:13.462Z,-81
2023-08-08T06:02:43.071Z,-82
2023-08-08T06:05:12.566Z,-83
2023-08-08T06:07:40.789Z,-82
2023-08-08T06:10:09.577Z,-82
2023-08-08T06:12:37.762Z,-81
2023-08-08T06:15:06.746Z,-82
2023-08-08T06:17:34.903Z,-82
2023-08-08T06:20:05.446Z,-82
2023-08-08T06:22:33.573Z,-82
2023-08-08T06:25:01.744Z,-82
2023-08-08T06:27:29.886Z,-81
2023-08-08T06:29:58.153Z,-82
2023-08-08T06:32:26.325Z,-82
2023-08-08T06:34:55.188Z,-82
2023-08-08T06:37:24.683Z,-82
2023-08-08T06:39:52.816Z,-82
2023-08-08T06:42:20.928Z,-82
2023-08-08T06:44:49.205Z,-82
2023-08-08T06:47:17.305Z,-82
2023-08-08T06:49:45.489Z,-82
2023-08-08T06:52:13.642Z,-82
2023-08-08T06:54:43.135Z,-82
2023-08-08T06:57:11.250Z,-82
2023-08-08T06:59:39.374Z,-82
2023-08-08T07:02:08.162Z,-82
2023-08-08T07:04:36.756Z,-82
2023-08-08T07:07:05.334Z,-82
2023-08-08T07:09:34.117Z,-82
2023-08-08T07:12:03.736Z,-81
2023-08-08T07:14:31.995Z,-81
2023-08-08T07:17:00.142Z,-82
2023-08-08T07:19:28.273Z,-82
2023-08-08T07:21:56.420Z,-82
2023-08-08T07:24:27.727Z,-82
2023-08-08T07:26:55.884Z,-81
2023-08-08T07:29:25.428Z,-82
2023-08-08T07:31:54.387Z,-82
2023-08-08T07:34:22.674Z,-82
2023-08-08T07:36:50.826Z,-82
2023-08-08T07:39:18.969Z,-81
2023-08-08T07:41:52.583Z,-82
2023-08-08T07:44:20.813Z,-82
2023-08-08T07:46:50.366Z,-82
2023-08-08T07:49:18.514Z,-82
2023-08-08T07:51:46.657Z,-81
2023-08-08T07:54:14.806Z,-82
2023-08-08T07:56:46.522Z,-82
2023-08-08T07:59:14.660Z,-82
2023-08-08T08:01:42.853Z,-81
2023-08-08T08:04:12.469Z,-82
2023-08-08T08:06:42.349Z,-81
2023-08-08T08:09:11.098Z,-82
2023-08-08T08:11:39.278Z,-82
2023-08-08T08:14:07.489Z,-81
2023-08-08T08:16:35.971Z,-81
2023-08-08T08:19:04.099Z,-82
2023-08-08T08:21:33.644Z,-82
2023-08-08T08:24:01.727Z,-82
2023-08-08T08:26:30.204Z,-81
2023-08-08T08:28:58.361Z,-81
2023-08-08T08:31:26.567Z,-81
2023-08-08T08:33:56.293Z,-82
2023-08-08T08:36:24.621Z,-81
2023-08-08T08:38:54.316Z,-82
2023-08-08T08:41:22.786Z,-82
2023-08-08T08:43:52.910Z,-82
2023-08-08T08:46:22.744Z,-82
2023-08-08T08:48:51.460Z,-81
2023-08-08T08:51:20.252Z,-82
2023-08-08T08:53:48.445Z,-81
2023-08-08T08:56:18.296Z,-82
2023-08-08T08:58:46.392Z,-81
2023-08-08T09:01:14.586Z,-82
2023-08-08T09:03:42.896Z,-82
2023-08-08T09:06:11.092Z,-81
2023-08-08T09:08:39.356Z,-82
2023-08-08T09:11:07.501Z,-82
2023-08-08T09:13:38.732Z,-81
2023-08-08T09:16:07.365Z,-81
2023-08-08T09:18:40.638Z,-82
2023-08-08T09:21:08.762Z,-82
2023-08-08T09:23:37.866Z,-82
2023-08-08T09:26:06.030Z,-82
2023-08-08T09:28:34.250Z,-82
2023-08-08T09:31:05.992Z,-82
2023-08-08T09:33:34.207Z,-82
2023-08-08T09:36:02.323Z,-82
2023-08-08T09:38:30.451Z,-81
2023-08-08T09:40:58.529Z,-82
2023-08-08T09:43:28.631Z,-81
2023-08-08T09:45:56.776Z,-82
2023-08-08T09:48:30.833Z,-81
2023-08-08T09:50:59.626Z,-81
2023-08-08T09:53:27.715Z,-82
2023-08-08T09:55:56.204Z,-81
2023-08-08T09:58:24.346Z,-81
2023-08-08T10:00:52.591Z,-81
2023-08-08T10:03:21.178Z,-82
2023-08-08T10:05:50.769Z,-82
2023-08-08T10:08:18.888Z,-82
2023-08-08T10:10:47.884Z,-82
2023-08-08T10:13:21.732Z,-82
2023-08-08T10:15:49.963Z,-82
2023-08-08T10:18:18.128Z,-84
2023-08-08T10:20:46.563Z,-81
2023-08-08T10:23:16.982Z,-82
2023-08-08T10:25:46.432Z,-81
2023-08-08T10:28:26.296Z,-82
2023-08-08T10:30:56.166Z,-82
2023-08-08T10:33:25.120Z,-81
2023-08-08T10:36:00.365Z,-82
2023-08-08T10:38:43.560Z,-81
2023-08-08T10:41:13.035Z,-81
2023-08-08T10:43:41.928Z,-82
2023-08-08T10:46:14.198Z,-82
2023-08-08T10:48:51.588Z,-82
2023-08-08T10:51:20.536Z,-81
2023-08-08T10:53:55.207Z,-82
2023-08-08T10:56:24.785Z,-81
2023-08-08T10:58:52.931Z,-82
2023-08-08T11:01:21.092Z,-82
2023-08-08T11:03:50.777Z,-82
2023-08-08T11:06:18.959Z,-82
2023-08-08T11:08:47.060Z,-82
2023-08-08T11:11:16.528Z,-82
2023-08-08T11:13:44.620Z,-82
2023-08-08T11:16:12.783Z,-83
2023-08-08T11:18:46.720Z,-82
2023-08-08T11:21:18.747Z,-82
2023-08-08T11:23:49.346Z,-82
2023-08-08T11:26:21.227Z,-81
2023-08-08T11:28:52.851Z,-82
2023-08-08T11:31:21.216Z,-81
2023-08-08T11:33:58.921Z,-81
2023-08-08T11:36:27.115Z,-82
2023-08-08T11:38:55.225Z,-82
2023-08-08T11:41:26.348Z,-82
2023-08-08T11:43:54.465Z,-81
2023-08-08T11:46:25.493Z,-82
2023-08-08T11:48:53.637Z,-82
2023-08-08T11:51:21.767Z,-82
2023-08-08T11:53:53.851Z,-81
2023-08-08T11:56:24.139Z,-81
2023-08-08T11:58:52.701Z,-81
2023-08-08T12:01:22.575Z,-82
2023-08-08T12:03:50.724Z,-82
2023-08-08T12:06:18.909Z,-82
2023-08-08T12:08:47.591Z,-81
2023-08-08T12:11:16.175Z,-82
2023-08-08T12:13:46.150Z,-81
2023-08-08T12:16:17.773Z,-81
2023-08-08T12:18:46.746Z,-80
2023-08-08T12:21:14.913Z,-82
2023-08-08T12:23:43.049Z,-82
2023-08-08T12:26:11.160Z,-82
2023-08-08T12:28:39.252Z,-82
2023-08-08T12:31:08.750Z,-81
2023-08-08T12:33:36.917Z,-82
2023-08-08T12:36:05.349Z,-81
2023-08-08T12:38:33.480Z,-81
2023-08-08T12:41:03.371Z,-81
2023-08-08T12:43:31.482Z,-82
2023-08-08T12:45:59.651Z,-82
2023-08-08T12:48:29.144Z,-81
2023-08-08T12:50:58.815Z,-82
2023-08-08T12:53:26.930Z,-82
2023-08-08T12:55:58.816Z,-82
2023-08-08T12:58:27.153Z,-81
2023-08-08T13:00:55.353Z,-82
2023-08-08T13:03:23.507Z,-82
2023-08-08T13:05:53.340Z,-82
2023-08-08T13:08:21.740Z,-82
2023-08-08T13:10:49.888Z,-82
2023-08-08T13:13:18.048Z,-82
2023-08-08T13:15:47.245Z,-82
2023-08-08T13:18:15.787Z,-82
2023-08-08T13:20:43.915Z,-82
2023-08-08T13:23:15.794Z,-82
2023-08-08T13:25:43.954Z,-82
2023-08-08T13:28:12.157Z,-82
2023-08-08T13:30:41.428Z,-81
2023-08-08T13:33:09.548Z,-81
2023-08-08T13:35:37.690Z,-82
2023-08-08T13:38:06.129Z,-82
2023-08-08T13:40:35.671Z,-81
2023-08-08T13:43:03.770Z,-81
2023-08-08T13:45:31.926Z,-82
2023-08-08T13:48:00.142Z,-82
2023-08-08T13:50:28.691Z,-82
2023-08-08T13:52:56.866Z,-81
2023-08-08T13:55:25.070Z,-82
2023-08-08T13:57:56.000Z,-82
2023-08-08T14:00:24.180Z,-82
2023-08-08T14:02:52.406Z,-82
2023-08-08T14:05:20.651Z,-82
2023-08-08T14:07:48.790Z,-82
2023-08-08T14:10:16.911Z,-82
2023-08-08T14:12:45.053Z,-81
2023-08-08T14:15:14.539Z,-81
2023-08-08T14:17:42.676Z,-81
2023-08-08T14:20:12.004Z,-82
2023-08-08T14:22:40.161Z,-82
2023-08-08T14:25:08.885Z,-82
2023-08-08T14:27:37.027Z,-81
2023-08-08T14:30:06.086Z,-82
2023-08-08T14:32:35.665Z,-78
2023-08-08T14:35:05.766Z,-78
2023-08-08T14:37:33.954Z,-78
2023-08-08T14:40:02.133Z,-78
2023-08-08T14:42:30.265Z,-78
2023-08-08T14:44:58.385Z,-78
2023-08-08T14:47:26.652Z,-78
2023-08-08T14:49:56.167Z,-78
2023-08-08T14:52:25.055Z,-78
2023-08-08T14:54:53.171Z,-78
2023-08-08T14:57:21.395Z,-78
2023-08-08T14:59:49.641Z,-78
2023-08-08T15:02:17.841Z,-78
2023-08-08T15:04:46.045Z,-78
2023-08-08T15:07:15.566Z,-78
2023-08-08T15:09:43.708Z,-78
2023-08-08T15:12:11.817Z,-78
2023-08-08T15:14:40.001Z,-78
2023-08-08T15:17:08.128Z,-78
2023-08-08T15:19:36.294Z,-78
2023-08-08T15:22:04.404Z,-78
2023-08-08T15:24:34.142Z,-79
2023-08-08T15:27:02.538Z,-78
2023-08-08T15:29:30.893Z,-78
2023-08-08T15:31:59.072Z,-78
2023-08-08T15:34:27.308Z,-78
2023-08-08T15:36:59.445Z,-78
2023-08-08T15:39:27.893Z,-78
2023-08-08T15:41:57.393Z,-78
2023-08-08T15:44:25.557Z,-78
2023-08-08T15:46:53.701Z,-78
2023-08-08T15:49:21.896Z,-78
2023-08-08T15:51:50.416Z,-78
2023-08-08T15:54:19.324Z,-78
2023-08-08T15:56:47.416Z,-78
2023-08-08T15:59:16.954Z,-78
2023-08-08T16:01:45.087Z,-79
2023-08-08T16:04:16.002Z,-78
2023-08-08T16:06:44.158Z,-78
2023-08-08T16:09:16.977Z,-78
2023-08-08T16:11:45.114Z,-78
2023-08-08T16:14:13.218Z,-78
2023-08-08T16:16:42.715Z,-79
2023-08-08T16:19:10.853Z,-78
2023-08-08T16:21:39.036Z,-79
2023-08-08T16:24:07.887Z,-78
2023-08-08T16:26:36.115Z,-78
2023-08-08T16:29:04.481Z,-78
2023-08-08T16:31:33.300Z,-78
2023-08-08T16:34:04.269Z,-78
2023-08-08T16:36:32.463Z,-78
2023-08-08T16:39:12.947Z,-78
2023-08-08T16:41:46.076Z,-78
2023-08-08T16:44:14.768Z,-78
2023-08-08T16:46:43.117Z,-78
2023-08-08T16:49:12.633Z,-78
2023-08-08T16:51:40.785Z,-78
2023-08-08T16:54:09.230Z,-78
2023-08-08T16:56:37.362Z,-78
2023-08-08T16:59:05.908Z,-78
2023-08-08T17:01:34.157Z,-77
2023-08-08T17:04:02.365Z,-78
2023-08-08T17:06:33.745Z,-79
2023-08-08T17:09:02.045Z,-78
2023-08-08T17:11:30.310Z,-78
2023-08-08T17:13:58.457Z,-78
2023-08-08T17:16:26.763Z,-78
2023-08-08T17:18:54.957Z,-78
2023-08-08T17:21:23.094Z,-78
2023-08-08T17:24:00.713Z,-78
2023-08-08T17:26:28.877Z,-78
2023-08-08T17:28:57.061Z,-78
2023-08-08T17:31:25.204Z,-78
2023-08-08T17:33:54.866Z,-79
2023-08-08T17:36:22.990Z,-78
2023-08-08T17:39:00.583Z,-78
2023-08-08T17:41:28.719Z,-79
2023-08-08T17:43:57.555Z,-78
2023-08-08T17:46:25.782Z,-78
2023-08-08T17:48:54.513Z,-78
2023-08-08T17:51:22.651Z,-78
2023-08-08T17:53:50.782Z,-78
2023-08-08T17:56:20.293Z,-78
2023-08-08T17:58:49.888Z,-78
2023-08-08T18:01:18.168Z,-78
2023-08-08T18:03:46.389Z,-78
2023-08-08T18:06:15.721Z,-78
2023-08-08T18:08:44.052Z,-78
2023-08-08T18:11:12.632Z,-78
2023-08-08T18:13:42.188Z,-78
2023-08-08T18:16:10.332Z,-78
2023-08-08T18:18:38.874Z,-78
2023-08-08T18:21:07.162Z,-78
2023-08-08T18:23:35.292Z,-78
2023-08-08T18:26:04.237Z,-78
2023-08-08T18:28:32.464Z,-78
2023-08-08T18:31:02.082Z,-78
2023-08-08T18:33:30.248Z,-78
2023-08-08T18:35:58.629Z,-78
2023-08-08T18:38:26.773Z,-78
2023-08-08T18:40:54.951Z,-78
2023-08-08T18:43:23.454Z,-78
2023-08-08T18:45:51.658Z,-78
2023-08-08T18:48:21.267Z,-78
2023-08-08T18:50:49.969Z,-78
2023-08-08T18:53:18.224Z,-78
2023-08-08T18:55:48.015Z,-78
2023-08-08T18:58:17.114Z,-78
2023-08-08T19:00:45.290Z,-78
2023-08-08T19:03:13.524Z,-78
2023-08-08T19:05:43.131Z,-78
2023-08-08T19:08:11.421Z,-78
2023-08-08T19:10:39.522Z,-79
2023-08-08T19:13:07.773Z,-78
2023-08-08T19:15:36.001Z,-78
2023-08-08T19:18:04.353Z,-78
2023-08-08T19:20:32.516Z,-78
2023-08-08T19:23:02.092Z,-78
2023-08-08T19:25:31.224Z,-79
2023-08-08T19:27:59.329Z,-78
2023-08-08T19:30:27.587Z,-78
2023-08-08T19:32:55.738Z,-78
2023-08-08T19:35:23.976Z,-78
2023-08-08T19:37:52.129Z,-78
2023-08-08T19:40:21.711Z,-78
2023-08-08T19:42:49.869Z,-78
2023-08-08T19:45:18.162Z,-78
2023-08-08T19:47:46.322Z,-78
2023-08-08T19:50:14.443Z,-78
2023-08-08T19:52:42.535Z,-78
2023-08-08T19:55:11.434Z,-78
2023-08-08T19:57:40.910Z,-78
2023-08-08T20:00:10.250Z,-78
2023-08-08T20:02:38.417Z,-79
2023-08-08T20:05:08.193Z,-78
2023-08-08T20:07:36.463Z,-78
2023-08-08T20:10:05.430Z,-78
2023-08-08T20:12:33.554Z,-78
2023-08-08T20:15:03.063Z,-78
2023-08-08T20:17:31.785Z,-78
2023-08-08T20:19:59.927Z,-78
2023-08-08T20:22:28.097Z,-78
2023-08-08T20:24:56.293Z,-78
2023-08-08T20:27:24.432Z,-78
2023-08-08T20:29:53.426Z,-78
2023-08-08T20:32:22.979Z,-78
2023-08-08T20:34:51.076Z,-78
2023-08-08T20:37:19.964Z,-78
2023-08-08T20:39:48.119Z,-78
2023-08-08T20:42:16.313Z,-78
2023-08-08T20:44:44.423Z,-78
2023-08-08T20:47:12.579Z,-78
2023-08-08T20:49:42.060Z,-78
2023-08-08T20:52:10.180Z,-78
2023-08-08T20:54:38.295Z,-77
2023-08-08T20:57:06.712Z,-78
2023-08-08T20:59:34.838Z,-78
2023-08-08T21:02:03.083Z,-78
2023-08-08T21:04:31.204Z,-78
2023-08-08T21:07:01.880Z,-78
2023-08-08T21:09:30.180Z,-78
2023-08-08T21:11:58.350Z,-78
2023-08-08T21:14:26.516Z,-78
2023-08-08T21:16:54.646Z,-78
2023-08-08T21:19:22.746Z,-77
2023-08-08T21:21:50.852Z,-78
2023-08-08T21:24:20.364Z,-78
2023-08-08T21:26:48.526Z,-78
2023-08-08T21:29:16.665Z,-78
2023-08-08T21:31:44.893Z,-78
2023-08-08T21:34:13.689Z,-78
2023-08-08T21:36:41.876Z,-78
2023-08-08T21:39:11.246Z,-77
2023-08-08T21:41:40.747Z,-78
2023-08-08T21:44:08.887Z,-78
2023-08-08T21:46:37.074Z,-77
2023-08-08T21:49:05.566Z,-78
2023-08-08T21:51:33.756Z,-78
2023-08-08T21:54:01.872Z,-78
2023-08-08T21:56:30.021Z,-78
2023-08-08T21:58:59.495Z,-78
2023-08-08T22:01:27.654Z,-78
2023-08-08T22:03:55.786Z,-78
2023-08-08T22:06:23.970Z,-79
2023-08-08T22:08:53.310Z,-78
2023-08-08T22:11:21.505Z,-78
2023-08-08T22:13:49.713Z,-78
2023-08-08T22:16:19.305Z,-78
2023-08-08T22:18:47.504Z,-78
2023-08-08T22:21:15.622Z,-78
2023-08-08T22:23:43.734Z,-77
2023-08-08T22:26:11.823Z,-78
2023-08-08T22:28:39.893Z,-78
2023-08-08T22:31:08.174Z,-78
2023-08-08T22:33:37.667Z,-78
2023-08-08T22:36:06.580Z,-78
2023-08-08T22:38:41.325Z,-78
2023-08-08T22:41:09.488Z,-78
2023-08-08T22:43:38.087Z,-78
2023-08-08T22:46:06.251Z,-78
2023-08-08T22:48:34.406Z,-78
2023-08-08T22:51:03.912Z,-78
2023-08-08T22:53:32.057Z,-78
2023-08-08T22:56:00.352Z,-78
2023-08-08T22:58:28.551Z,-78
2023-08-08T23:00:56.670Z,-78
2023-08-08T23:03:24.909Z,-78
2023-08-08T23:05:53.020Z,-78
2023-08-08T23:08:28.400Z,-78
2023-08-08T23:10:56.630Z,-78
2023-08-08T23:13:24.762Z,-78
2023-08-08T23:15:52.945Z,-78
2023-08-08T23:18:21.173Z,-78
2023-08-08T23:20:50.175Z,-78
2023-08-08T23:23:18.316Z,-78
2023-08-08T23:25:47.812Z,-78
2023-08-08T23:28:18.259Z,-78
2023-08-08T23:30:46.502Z,-78
2023-08-08T23:33:15.125Z,-78
2023-08-08T23:35:43.389Z,-77
2023-08-08T23:38:11.511Z,-78
2023-08-08T23:40:39.644Z,-78
2023-08-08T23:43:09.106Z,-78
2023-08-08T23:45:41.422Z,-78
2023-08-08T23:48:09.902Z,-77
2023-08-08T23:50:38.038Z,-78
2023-08-08T23:53:06.161Z,-78
2023-08-08T23:55:34.497Z,-78
2023-08-08T23:58:02.610Z,-78
